createdAt,value
2018-03-30T00:02:00.586Z,54.83
2018-03-30T00:04:27.454Z,54.80
2018-03-30T00:06:54.463Z,55.24
2018-03-30T00:09:33.400Z,55.34
2018-03-30T00:12:00.249Z,55.46
2018-03-30T00:14:27.086Z,55.54
2018-03-30T00:16:53.827Z,55.69
2018-03-30T00:19:20.895Z,55.73
2018-03-30T00:21:47.545Z,56.15
2018-03-30T00:24:14.351Z,56.45
2018-03-30T00:26:41.162Z,56.26
2018-03-30T00:29:08.006Z,56.47
2018-03-30T00:31:34.640Z,56.34
2018-03-30T00:34:01.259Z,56.54
2018-03-30T00:36:27.965Z,55.34
2018-03-30T00:38:54.771Z,55.40
2018-03-30T00:41:21.658Z,54.36
2018-03-30T00:43:48.735Z,55.26
2018-03-30T00:46:15.567Z,55.78
2018-03-30T00:48:42.445Z,55.91
2018-03-30T00:51:09.155Z,56.00
2018-03-30T00:53:50.072Z,55.76
2018-03-30T00:56:16.873Z,56.14
2018-03-30T00:58:43.542Z,56.09
2018-03-30T01:01:10.279Z,56.42
2018-03-30T01:03:37.140Z,56.50
2018-03-30T01:06:03.757Z,56.85
2018-03-30T01:08:30.518Z,56.94
2018-03-30T01:10:57.177Z,56.69
2018-03-30T01:13:23.970Z,56.57
2018-03-30T01:15:50.888Z,56.50
2018-03-30T01:18:17.695Z,56.40
2018-03-30T01:20:44.506Z,55.93
2018-03-30T01:23:11.115Z,53.50
2018-03-30T01:25:37.894Z,52.44
2018-03-30T01:28:04.422Z,54.59
2018-03-30T01:30:31.054Z,55.10
2018-03-30T01:32:58.081Z,55.68
2018-03-30T01:35:25.308Z,55.99
2018-03-30T01:37:51.911Z,56.05
2018-03-30T01:40:18.330Z,56.07
2018-03-30T01:42:45.085Z,56.04
2018-03-30T01:45:12.040Z,56.27
2018-03-30T01:47:38.712Z,56.34
2018-03-30T01:50:05.486Z,56.35
2018-03-30T01:52:32.310Z,56.91
2018-03-30T01:54:59.153Z,57.08
2018-03-30T01:57:26.019Z,57.54
2018-03-30T01:59:52.714Z,57.52
2018-03-30T02:02:19.505Z,57.63
2018-03-30T02:04:46.077Z,57.82
2018-03-30T02:07:12.774Z,57.73
2018-03-30T02:09:39.457Z,57.64
2018-03-30T02:12:06.107Z,57.84
2018-03-30T02:14:32.886Z,57.53
2018-03-30T02:16:59.374Z,57.80
2018-03-30T02:19:26.351Z,58.17
2018-03-30T02:21:53.289Z,57.77
2018-03-30T02:24:20.108Z,57.73
2018-03-30T02:26:46.762Z,57.80
2018-03-30T02:29:13.314Z,57.85
2018-03-30T02:31:40.157Z,57.76
2018-03-30T02:34:06.726Z,57.83
2018-03-30T02:36:33.408Z,57.55
2018-03-30T02:38:59.891Z,58.36
2018-03-30T02:41:26.702Z,58.18
2018-03-30T02:43:53.708Z,58.40
2018-03-30T02:46:20.406Z,58.51
2018-03-30T02:48:47.084Z,58.61
2018-03-30T02:51:14.278Z,58.50
2018-03-30T02:53:41.140Z,58.53
2018-03-30T02:56:07.738Z,58.56
2018-03-30T02:58:34.430Z,58.82
2018-03-30T03:01:01.263Z,58.84
2018-03-30T03:03:28.182Z,58.73
2018-03-30T03:05:54.909Z,58.34
2018-03-30T03:08:21.680Z,58.40
2018-03-30T03:10:48.296Z,58.36
2018-03-30T03:13:14.815Z,58.39
2018-03-30T03:15:41.474Z,58.30
2018-03-30T03:18:08.199Z,58.27
2018-03-30T03:20:34.942Z,58.03
2018-03-30T03:23:01.533Z,58.07
2018-03-30T03:25:28.589Z,58.24
2018-03-30T03:27:56.196Z,58.42
2018-03-30T03:30:22.954Z,58.71
2018-03-30T03:32:51.907Z,58.56
2018-03-30T03:35:18.489Z,58.37
2018-03-30T03:37:45.569Z,58.35
2018-03-30T03:40:12.356Z,58.36
2018-03-30T03:42:39.130Z,58.52
2018-03-30T03:45:06.329Z,58.75
2018-03-30T03:47:32.989Z,58.97
2018-03-30T03:49:59.882Z,58.90
2018-03-30T03:52:26.667Z,58.98
2018-03-30T03:57:26.462Z,59.31
2018-03-30T03:59:53.227Z,59.42
2018-03-30T04:02:19.823Z,59.45
2018-03-30T04:04:46.469Z,59.67
2018-03-30T04:07:13.342Z,59.92
2018-03-30T04:09:40.081Z,59.74
2018-03-30T04:12:08.033Z,60.04
2018-03-30T04:14:34.607Z,60.35
2018-03-30T04:17:01.200Z,60.42
2018-03-30T04:19:27.767Z,60.37
2018-03-30T04:21:54.607Z,60.28
2018-03-30T04:24:21.361Z,60.12
2018-03-30T04:26:48.266Z,59.91
2018-03-30T04:29:15.275Z,59.79
2018-03-30T04:31:41.839Z,59.72
2018-03-30T04:34:08.290Z,59.75
2018-03-30T04:36:35.247Z,59.58
2018-03-30T04:39:02.022Z,59.74
2018-03-30T04:41:28.587Z,59.68
2018-03-30T04:43:55.365Z,59.42
2018-03-30T04:46:21.966Z,59.28
2018-03-30T04:48:48.717Z,59.52
2018-03-30T04:51:15.324Z,59.45
2018-03-30T04:53:41.870Z,59.53
2018-03-30T04:56:08.498Z,59.19
2018-03-30T04:58:35.283Z,59.10
2018-03-30T05:01:01.995Z,58.88
2018-03-30T05:03:28.576Z,58.51
2018-03-30T05:05:55.358Z,58.36
2018-03-30T05:08:22.097Z,57.64
2018-03-30T05:10:49.004Z,57.70
2018-03-30T05:13:15.638Z,57.77
2018-03-30T05:15:42.339Z,57.28
2018-03-30T05:18:08.961Z,57.46
2018-03-30T05:20:35.940Z,57.30
2018-03-30T05:23:02.616Z,57.11
2018-03-30T05:25:29.167Z,57.02
2018-03-30T05:27:55.790Z,57.04
2018-03-30T05:30:22.313Z,56.52
2018-03-30T05:32:55.766Z,56.13
2018-03-30T05:35:22.455Z,56.30
2018-03-30T05:37:49.029Z,55.97
2018-03-30T05:40:15.681Z,55.74
2018-03-30T05:42:42.457Z,55.38
2018-03-30T05:45:09.170Z,54.94
2018-03-30T05:47:35.750Z,54.52
2018-03-30T05:50:02.409Z,53.98
2018-03-30T05:52:29.250Z,53.31
2018-03-30T05:54:56.092Z,53.60
2018-03-30T05:57:23.261Z,52.89
2018-03-30T05:59:49.946Z,51.96
2018-03-30T06:02:17.177Z,51.86
2018-03-30T06:04:43.593Z,51.56
2018-03-30T06:07:10.300Z,51.52
2018-03-30T06:09:36.975Z,51.86
2018-03-30T06:12:03.643Z,51.70
2018-03-30T06:14:30.403Z,50.66
2018-03-30T06:16:57.215Z,50.73
2018-03-30T06:19:24.219Z,49.57
2018-03-30T06:21:50.742Z,49.56
2018-03-30T06:24:17.665Z,49.58
2018-03-30T06:26:44.380Z,49.51
2018-03-30T06:29:11.250Z,49.56
2018-03-30T06:31:38.059Z,49.33
2018-03-30T06:34:04.601Z,49.23
2018-03-30T06:36:31.332Z,49.02
2018-03-30T06:38:58.219Z,49.30
2018-03-30T06:41:24.910Z,48.76
2018-03-30T06:43:51.546Z,48.53
2018-03-30T06:46:18.287Z,48.39
2018-03-30T06:48:45.083Z,48.03
2018-03-30T06:51:11.677Z,47.94
2018-03-30T06:53:38.379Z,46.93
2018-03-30T06:56:05.106Z,46.60
2018-03-30T06:58:31.753Z,46.13
2018-03-30T07:00:58.367Z,45.85
2018-03-30T07:03:32.145Z,45.28
2018-03-30T07:05:58.850Z,44.72
2018-03-30T07:08:25.769Z,45.35
2018-03-30T07:10:52.344Z,45.20
2018-03-30T07:13:18.885Z,45.19
2018-03-30T07:15:45.477Z,45.29
2018-03-30T07:18:12.261Z,45.34
2018-03-30T07:20:39.330Z,45.11
2018-03-30T07:23:05.893Z,44.91
2018-03-30T07:25:32.506Z,43.74
2018-03-30T07:27:59.555Z,43.99
2018-03-30T07:30:26.385Z,43.81
2018-03-30T07:32:52.898Z,44.35
2018-03-30T07:35:19.799Z,43.84
2018-03-30T07:37:46.498Z,43.40
2018-03-30T07:40:13.410Z,43.25
2018-03-30T07:42:40.142Z,43.54
2018-03-30T07:45:06.706Z,43.07
2018-03-30T07:47:33.626Z,42.87
2018-03-30T07:50:00.578Z,42.71
2018-03-30T07:52:27.291Z,42.45
2018-03-30T07:54:53.884Z,42.42
2018-03-30T07:57:20.398Z,42.43
2018-03-30T07:59:47.073Z,42.52
2018-03-30T08:02:13.865Z,42.71
2018-03-30T08:04:40.624Z,42.38
2018-03-30T08:07:07.246Z,42.06
2018-03-30T08:09:33.809Z,41.85
2018-03-30T08:12:00.584Z,42.44
2018-03-30T08:14:27.268Z,42.94
2018-03-30T08:16:54.108Z,42.38
2018-03-30T08:19:21.227Z,41.63
2018-03-30T08:21:47.713Z,41.52
2018-03-30T08:24:14.422Z,41.41
2018-03-30T08:26:41.008Z,40.90
2018-03-30T08:29:07.544Z,41.52
2018-03-30T08:31:34.313Z,41.98
2018-03-30T08:34:01.146Z,41.77
2018-03-30T08:36:28.005Z,41.83
2018-03-30T08:38:54.901Z,41.99
2018-03-30T08:41:21.839Z,42.04
2018-03-30T08:43:48.545Z,42.00
2018-03-30T08:46:15.103Z,41.84
2018-03-30T08:48:42.049Z,42.00
2018-03-30T08:51:08.615Z,41.99
2018-03-30T08:53:35.704Z,41.89
2018-03-30T08:56:02.481Z,41.62
2018-03-30T08:58:29.128Z,41.66
2018-03-30T09:00:56.111Z,41.57
2018-03-30T09:03:23.044Z,41.04
2018-03-30T09:05:49.772Z,40.93
2018-03-30T09:08:16.483Z,40.76
2018-03-30T09:10:43.493Z,41.19
2018-03-30T09:13:10.401Z,40.47
2018-03-30T09:15:37.178Z,40.79
2018-03-30T09:18:04.222Z,40.63
2018-03-30T09:20:30.870Z,40.97
2018-03-30T09:22:57.617Z,40.88
2018-03-30T09:25:24.491Z,41.27
2018-03-30T09:27:51.510Z,40.73
2018-03-30T09:30:18.496Z,40.58
2018-03-30T09:32:45.164Z,40.38
2018-03-30T09:35:11.919Z,40.43
2018-03-30T09:37:39.107Z,40.55
2018-03-30T09:40:05.615Z,40.04
2018-03-30T09:42:32.364Z,40.53
2018-03-30T09:44:59.381Z,39.79
2018-03-30T09:47:25.877Z,39.98
2018-03-30T09:49:52.695Z,39.55
2018-03-30T09:52:19.180Z,39.45
2018-03-30T09:54:46.063Z,39.24
2018-03-30T09:57:12.950Z,39.37
2018-03-30T09:59:39.623Z,38.36
2018-03-30T10:02:06.328Z,37.28
2018-03-30T10:04:33.218Z,37.36
2018-03-30T10:07:00.382Z,37.68
2018-03-30T10:09:27.108Z,36.56
2018-03-30T10:11:53.826Z,36.67
2018-03-30T10:14:20.553Z,36.74
2018-03-30T10:19:20.804Z,36.70
2018-03-30T10:21:47.860Z,36.53
2018-03-30T10:24:14.489Z,35.81
2018-03-30T10:26:41.082Z,35.64
2018-03-30T10:29:07.646Z,35.62
2018-03-30T10:31:34.286Z,35.58
2018-03-30T10:34:00.764Z,35.49
2018-03-30T10:36:27.410Z,35.65
2018-03-30T10:38:54.197Z,35.73
2018-03-30T10:41:21.099Z,36.18
2018-03-30T10:43:47.956Z,35.41
2018-03-30T10:46:14.577Z,35.46
2018-03-30T10:48:41.547Z,35.35
2018-03-30T10:51:08.388Z,35.28
2018-03-30T10:53:34.970Z,35.59
2018-03-30T10:56:01.486Z,35.01
2018-03-30T10:58:28.419Z,34.58
2018-03-30T11:00:55.069Z,33.56
2018-03-30T11:03:22.194Z,33.36
2018-03-30T11:05:48.616Z,33.64
2018-03-30T11:08:15.414Z,33.99
2018-03-30T11:10:41.902Z,33.85
2018-03-30T11:13:08.948Z,33.71
2018-03-30T11:15:35.606Z,33.83
2018-03-30T11:18:02.108Z,33.86
2018-03-30T11:20:28.976Z,33.60
2018-03-30T11:22:55.550Z,33.17
2018-03-30T11:25:22.204Z,32.35
2018-03-30T11:27:48.910Z,32.27
2018-03-30T11:30:15.561Z,33.59
2018-03-30T11:32:42.356Z,33.80
2018-03-30T11:35:08.934Z,33.24
2018-03-30T11:37:35.567Z,33.33
2018-03-30T11:40:02.110Z,32.86
2018-03-30T11:42:28.846Z,33.08
2018-03-30T11:44:55.649Z,33.15
2018-03-30T11:47:22.395Z,33.20
2018-03-30T11:49:49.185Z,33.46
2018-03-30T11:52:15.750Z,33.45
2018-03-30T11:54:42.499Z,32.70
2018-03-30T11:57:09.319Z,33.13
2018-03-30T11:59:35.985Z,32.88
2018-03-30T12:02:02.545Z,32.38
2018-03-30T12:04:29.408Z,31.82
2018-03-30T12:06:56.430Z,31.80
2018-03-30T12:09:23.347Z,31.99
2018-03-30T12:11:49.940Z,32.10
2018-03-30T12:14:16.872Z,31.77
2018-03-30T12:16:43.552Z,31.55
2018-03-30T12:19:10.543Z,31.71
2018-03-30T12:21:37.443Z,31.76
2018-03-30T12:24:04.128Z,31.76
2018-03-30T12:26:30.718Z,32.18
2018-03-30T12:28:57.502Z,31.72
2018-03-30T12:31:24.489Z,31.53
2018-03-30T12:33:51.105Z,31.42
2018-03-30T12:36:17.874Z,31.01
2018-03-30T12:38:44.501Z,32.10
2018-03-30T12:41:11.158Z,30.87
2018-03-30T12:43:37.780Z,30.54
2018-03-30T12:46:04.550Z,30.55
2018-03-30T12:48:31.160Z,30.61
2018-03-30T12:50:57.612Z,29.67
2018-03-30T12:53:24.409Z,29.81
2018-03-30T12:55:51.198Z,29.47
2018-03-30T12:58:17.831Z,29.08
2018-03-30T13:00:44.701Z,29.12
2018-03-30T13:03:11.333Z,28.63
2018-03-30T13:08:11.119Z,28.84
2018-03-30T13:10:37.722Z,28.72
2018-03-30T13:13:04.341Z,28.91
2018-03-30T13:15:31.119Z,28.93
2018-03-30T13:17:57.737Z,28.31
2018-03-30T13:20:24.424Z,28.60
2018-03-30T13:22:51.090Z,28.97
2018-03-30T13:25:17.699Z,27.72
2018-03-30T13:27:44.346Z,26.75
2018-03-30T13:30:10.813Z,27.35
2018-03-30T13:32:37.404Z,27.74
2018-03-30T13:35:04.095Z,27.81
2018-03-30T13:37:30.855Z,28.18
2018-03-30T13:39:57.590Z,27.65
2018-03-30T13:42:24.490Z,27.59
2018-03-30T13:44:51.175Z,28.04
2018-03-30T13:47:25.321Z,28.37
2018-03-30T13:49:51.938Z,28.12
2018-03-30T13:52:22.742Z,27.76
2018-03-30T13:54:49.603Z,27.97
2018-03-30T14:00:11.473Z,28.07
2018-03-30T14:02:55.792Z,27.56
2018-03-30T14:05:27.781Z,27.79
2018-03-30T14:08:08.317Z,28.14
2018-03-30T14:10:53.073Z,27.40
2018-03-30T14:13:20.255Z,27.23
2018-03-30T14:15:47.790Z,27.03
2018-03-30T14:18:19.123Z,27.17
2018-03-30T14:20:47.752Z,26.68
2018-03-30T14:23:18.230Z,27.19
2018-03-30T14:25:58.019Z,26.72
2018-03-30T14:28:37.792Z,26.69
2018-03-30T14:31:22.079Z,26.95
2018-03-30T14:33:51.702Z,26.92
2018-03-30T14:36:28.440Z,27.18
2018-03-30T14:41:54.699Z,26.98
2018-03-30T14:44:31.680Z,26.97
2018-03-30T14:46:59.188Z,26.72
2018-03-30T14:49:27.418Z,26.87
2018-03-30T14:52:11.366Z,26.94
2018-03-30T14:54:39.517Z,27.04
2018-03-30T14:57:18.282Z,27.39
2018-03-30T14:59:53.198Z,27.46
2018-03-30T15:02:27.915Z,26.77
2018-03-30T15:08:15.706Z,27.17
2018-03-30T15:10:54.842Z,27.14
2018-03-30T15:13:22.400Z,27.33
2018-03-30T15:16:20.484Z,27.23
2018-03-30T15:18:51.338Z,27.86
2018-03-30T15:24:21.123Z,28.27
2018-03-30T15:26:49.075Z,28.14
2018-03-30T15:29:18.675Z,28.43
2018-03-30T15:31:53.223Z,28.84
2018-03-30T15:34:21.657Z,28.84
2018-03-30T15:36:49.135Z,28.51
2018-03-30T15:39:16.940Z,28.68
2018-03-30T15:41:45.506Z,28.76
2018-03-30T15:44:12.342Z,29.48
2018-03-30T15:46:49.965Z,29.38
2018-03-30T15:49:18.939Z,29.51
2018-03-30T15:51:50.227Z,29.12
2018-03-30T15:54:16.426Z,29.50
2018-03-30T15:56:43.997Z,29.51
2018-03-30T15:59:10.764Z,29.38
2018-03-30T16:01:37.638Z,29.10
2018-03-30T16:04:04.299Z,29.66
2018-03-30T16:06:31.052Z,29.83
2018-03-30T16:08:58.142Z,29.95
2018-03-30T16:11:28.950Z,29.73
2018-03-30T16:13:55.755Z,29.48
2018-03-30T16:16:22.884Z,29.54
2018-03-30T16:18:55.350Z,29.90
2018-03-30T16:21:21.827Z,30.16
2018-03-30T16:23:55.264Z,30.11
2018-03-30T16:26:21.623Z,29.68
2018-03-30T16:28:48.037Z,29.65
2018-03-30T16:31:14.258Z,30.16
2018-03-30T16:33:40.557Z,30.57
2018-03-30T16:36:07.232Z,30.81
2018-03-30T16:38:33.490Z,31.68
2018-03-30T16:41:00.125Z,30.20
2018-03-30T16:43:26.649Z,30.27
2018-03-30T16:45:52.757Z,30.77
2018-03-30T16:48:18.833Z,30.38
2018-03-30T16:50:44.994Z,30.48
2018-03-30T16:53:11.340Z,30.30
2018-03-30T16:55:37.523Z,30.29
2018-03-30T16:58:04.104Z,30.33
2018-03-30T17:00:30.639Z,30.12
2018-03-30T17:02:56.957Z,31.11
2018-03-30T17:05:23.590Z,31.06
2018-03-30T17:07:50.350Z,30.47
2018-03-30T17:10:16.858Z,30.47
2018-03-30T17:12:43.565Z,31.13
2018-03-30T17:15:10.880Z,30.53
2018-03-30T17:17:39.034Z,30.40
2018-03-30T17:20:05.249Z,30.62
2018-03-30T17:22:31.422Z,30.78
2018-03-30T17:24:57.835Z,30.68
2018-03-30T17:27:24.026Z,30.70
2018-03-30T17:29:50.670Z,30.92
2018-03-30T17:32:17.313Z,31.81
2018-03-30T17:34:43.650Z,31.98
2018-03-30T17:37:10.792Z,31.48
2018-03-30T17:39:37.328Z,31.07
2018-03-30T17:42:04.219Z,31.42
2018-03-30T17:44:31.302Z,31.21
2018-03-30T17:46:57.590Z,30.94
2018-03-30T17:49:24.148Z,30.75
2018-03-30T17:51:53.772Z,30.54
2018-03-30T17:54:20.155Z,31.19
2018-03-30T17:56:46.439Z,31.00
2018-03-30T17:59:13.383Z,31.48
2018-03-30T18:01:40.188Z,30.46
2018-03-30T18:04:06.775Z,30.52
2018-03-30T18:06:33.032Z,29.78
2018-03-30T18:09:01.830Z,30.10
2018-03-30T18:11:28.259Z,29.80
2018-03-30T18:13:54.719Z,30.28
2018-03-30T18:16:22.148Z,36.85
2018-03-30T18:18:48.342Z,38.56
2018-03-30T18:21:15.147Z,40.38
2018-03-30T18:23:42.905Z,41.49
2018-03-30T18:26:10.514Z,41.90
2018-03-30T18:28:37.872Z,41.74
2018-03-30T18:31:04.347Z,41.59
2018-03-30T18:33:30.570Z,41.25
2018-03-30T18:35:56.918Z,41.03
2018-03-30T18:38:23.020Z,41.00
2018-03-30T18:40:50.852Z,40.86
2018-03-30T18:43:17.148Z,41.37
2018-03-30T18:45:43.811Z,41.84
2018-03-30T18:48:10.035Z,42.06
2018-03-30T18:50:36.150Z,42.44
2018-03-30T18:53:02.564Z,42.71
2018-03-30T18:55:28.859Z,42.36
2018-03-30T18:57:55.403Z,41.92
2018-03-30T19:00:22.038Z,41.85
2018-03-30T19:02:48.291Z,41.49
2018-03-30T19:05:14.811Z,41.30
2018-03-30T19:07:42.387Z,41.74
2018-03-30T19:10:09.005Z,41.98
2018-03-30T19:12:35.706Z,42.08
2018-03-30T19:15:02.431Z,42.10
2018-03-30T19:17:29.833Z,42.33
2018-03-30T19:19:56.754Z,42.50
2018-03-30T19:22:23.221Z,42.49
2018-03-30T19:24:49.739Z,42.38
2018-03-30T19:27:16.166Z,42.36
2018-03-30T19:29:42.898Z,42.30
2018-03-30T19:32:09.268Z,42.28
2018-03-30T19:34:36.408Z,42.39
2018-03-30T19:37:04.118Z,42.42
2018-03-30T19:39:31.005Z,42.41
2018-03-30T19:41:57.584Z,42.26
2018-03-30T19:44:24.363Z,42.29
2018-03-30T19:46:50.860Z,42.26
2018-03-30T19:49:17.400Z,42.27
2018-03-30T19:51:43.834Z,42.98
2018-03-30T19:54:10.646Z,42.94
2018-03-30T19:56:37.936Z,42.90
2018-03-30T19:59:04.414Z,43.33
2018-03-30T20:01:30.936Z,43.59
2018-03-30T20:03:57.922Z,43.79
2018-03-30T20:30:45.710Z,45.45
2018-03-30T20:33:19.606Z,45.35
2018-03-30T20:35:59.228Z,45.41
2018-03-30T20:39:44.882Z,45.63
2018-03-30T20:42:17.184Z,45.87
2018-03-30T20:44:48.414Z,45.86
2018-03-30T20:47:15.728Z,46.18
2018-03-30T20:49:41.985Z,45.97
2018-03-30T20:52:08.173Z,46.10
2018-03-30T20:54:34.834Z,46.78
2018-03-30T20:57:03.092Z,47.00
2018-03-30T20:59:29.887Z,46.79
2018-03-30T21:01:58.680Z,47.66
2018-03-30T21:04:26.257Z,46.88
2018-03-30T21:06:53.143Z,47.14
2018-03-30T21:09:20.380Z,47.69
2018-03-30T21:11:48.169Z,47.98
2018-03-30T21:14:14.694Z,48.17
2018-03-30T21:16:41.143Z,48.71
2018-03-30T21:19:07.546Z,48.48
2018-03-30T21:21:33.925Z,48.54
2018-03-30T21:24:00.803Z,49.21
2018-03-30T21:26:27.434Z,49.35
2018-03-30T21:28:54.180Z,49.70
2018-03-30T21:31:20.425Z,50.08
2018-03-30T21:33:46.907Z,50.24
2018-03-30T21:36:13.476Z,49.90
2018-03-30T21:38:40.858Z,50.13
2018-03-30T21:41:07.024Z,50.65
2018-03-30T21:43:35.482Z,50.45
2018-03-30T21:46:01.974Z,49.77
2018-03-30T21:51:01.837Z,50.64
2018-03-30T21:53:28.335Z,50.23
2018-03-30T21:55:54.860Z,50.38
2018-03-30T21:58:22.391Z,50.97
2018-03-30T22:00:48.668Z,51.18
2018-03-30T22:03:15.995Z,51.24
2018-03-30T22:05:42.630Z,51.44
2018-03-30T22:08:08.834Z,51.83
2018-03-30T22:10:35.745Z,52.12
2018-03-30T22:13:02.371Z,52.00
2018-03-30T22:15:28.892Z,51.96
2018-03-30T22:17:55.417Z,51.88
2018-03-30T22:20:22.987Z,52.12
2018-03-30T22:22:50.342Z,52.28
2018-03-30T22:25:17.094Z,52.21
2018-03-30T22:27:43.591Z,52.54
2018-03-30T22:30:10.148Z,52.14
2018-03-30T22:32:36.678Z,52.44
2018-03-30T22:35:03.196Z,52.30
2018-03-30T22:37:29.763Z,52.49
2018-03-30T22:39:56.303Z,52.42
2018-03-30T22:42:22.740Z,52.59
2018-03-30T22:44:49.212Z,52.75
2018-03-30T22:47:15.692Z,53.22
2018-03-30T22:49:42.273Z,53.27
2018-03-30T22:52:08.972Z,53.19
2018-03-30T22:54:36.484Z,53.02
2018-03-30T22:57:03.054Z,53.46
2018-03-30T22:59:29.685Z,53.07
2018-03-30T23:01:56.233Z,52.93
2018-03-30T23:04:22.810Z,52.62
2018-03-30T23:06:49.541Z,52.66
2018-03-30T23:09:16.284Z,52.69
2018-03-30T23:11:43.179Z,53.46
2018-03-30T23:14:09.967Z,53.75
2018-03-30T23:16:37.027Z,53.73
2018-03-30T23:19:03.751Z,53.86
2018-03-30T23:21:30.532Z,54.21
2018-03-30T23:23:57.146Z,54.35
2018-03-30T23:26:25.132Z,54.24
2018-03-30T23:28:52.164Z,54.10
2018-03-30T23:31:18.890Z,54.24
2018-03-30T23:33:46.506Z,54.67
2018-03-30T23:36:13.218Z,54.84
2018-03-30T23:38:41.667Z,55.24
2018-03-30T23:41:08.526Z,55.63
2018-03-30T23:43:36.023Z,55.65
2018-03-30T23:46:02.503Z,55.56
2018-03-30T23:48:29.548Z,55.60
2018-03-30T23:50:56.202Z,55.50
2018-03-30T23:53:23.167Z,55.85
2018-03-30T23:55:50.237Z,55.96
2018-03-30T23:58:19.412Z,56.07
